sensor_id;sensor_type;location;lat;lon;timestamp;P1;durP1;ratioP1;P2;durP2;ratioP2
5553;SDS011;2800;49.528;8.666;2022-12-05T00:00:10;65.93;;;42.97;;
5553;SDS011;2800;49.528;8.666;2022-12-05T00:02:36;68.67;;;39.30;;
5553;SDS011;2800;49.528;8.666;2022-12-05T00:05:02;65.03;;;37.90;;
5553;SDS011;2800;49.528;8.666;2022-12-05T00:07:28;78.60;;;38.57;;
5553;SDS011;2800;49.528;8.666;2022-12-05T00:09:53;67.30;;;38.13;;
5553;SDS011;2800;49.528;8.666;2022-12-05T00:12:19;60.87;;;36.10;;
5553;SDS011;2800;49.528;8.666;2022-12-05T00:14:44;65.43;;;39.20;;
5553;SDS011;2800;49.528;8.666;2022-12-05T00:17:10;62.03;;;37.40;;
5553;SDS011;2800;49.528;8.666;2022-12-05T00:19:35;72.07;;;38.43;;
5553;SDS011;2800;49.528;8.666;2022-12-05T00:22:01;59.57;;;39.00;;
5553;SDS011;2800;49.528;8.666;2022-12-05T00:24:26;68.83;;;40.10;;
5553;SDS011;2800;49.528;8.666;2022-12-05T00:26:52;66.57;;;39.70;;
5553;SDS011;2800;49.528;8.666;2022-12-05T00:29:17;66.23;;;39.77;;
5553;SDS011;2800;49.528;8.666;2022-12-05T00:31:43;69.87;;;39.40;;
5553;SDS011;2800;49.528;8.666;2022-12-05T00:34:08;77.67;;;40.50;;
5553;SDS011;2800;49.528;8.666;2022-12-05T00:36:34;93.17;;;40.83;;
5553;SDS011;2800;49.528;8.666;2022-12-05T00:39:01;78.43;;;39.73;;
5553;SDS011;2800;49.528;8.666;2022-12-05T00:41:30;71.33;;;38.30;;
5553;SDS011;2800;49.528;8.666;2022-12-05T00:43:57;77.57;;;39.87;;
5553;SDS011;2800;49.528;8.666;2022-12-05T00:46:25;74.83;;;41.73;;
5553;SDS011;2800;49.528;8.666;2022-12-05T00:48:52;81.60;;;40.20;;
5553;SDS011;2800;49.528;8.666;2022-12-05T00:51:20;78.23;;;41.10;;
5553;SDS011;2800;49.528;8.666;2022-12-05T00:53:48;84.90;;;41.30;;
5553;SDS011;2800;49.528;8.666;2022-12-05T00:56:15;83.00;;;40.00;;
5553;SDS011;2800;49.528;8.666;2022-12-05T00:58:42;80.20;;;42.90;;
5553;SDS011;2800;49.528;8.666;2022-12-05T01:01:09;89.33;;;40.77;;
5553;SDS011;2800;49.528;8.666;2022-12-05T01:03:40;77.17;;;43.70;;
5553;SDS011;2800;49.528;8.666;2022-12-05T01:06:07;87.03;;;45.07;;
5553;SDS011;2800;49.528;8.666;2022-12-05T01:08:33;83.40;;;43.70;;
5553;SDS011;2800;49.528;8.666;2022-12-05T01:10:59;93.73;;;43.80;;
5553;SDS011;2800;49.528;8.666;2022-12-05T01:13:25;73.80;;;41.10;;
5553;SDS011;2800;49.528;8.666;2022-12-05T01:15:51;92.53;;;43.33;;
5553;SDS011;2800;49.528;8.666;2022-12-05T01:18:17;89.43;;;45.97;;
5553;SDS011;2800;49.528;8.666;2022-12-05T01:20:44;308.43;;;50.17;;
5553;SDS011;2800;49.528;8.666;2022-12-05T01:23:10;174.90;;;49.87;;
5553;SDS011;2800;49.528;8.666;2022-12-05T01:25:39;118.70;;;46.40;;
5553;SDS011;2800;49.528;8.666;2022-12-05T01:28:06;133.63;;;49.77;;
5553;SDS011;2800;49.528;8.666;2022-12-05T01:30:31;91.03;;;46.40;;
5553;SDS011;2800;49.528;8.666;2022-12-05T01:32:58;139.07;;;49.33;;
5553;SDS011;2800;49.528;8.666;2022-12-05T01:35:23;342.10;;;52.13;;
5553;SDS011;2800;49.528;8.666;2022-12-05T01:37:49;109.37;;;49.43;;
5553;SDS011;2800;49.528;8.666;2022-12-05T01:40:15;283.60;;;54.40;;
5553;SDS011;2800;49.528;8.666;2022-12-05T01:42:41;166.00;;;50.10;;
5553;SDS011;2800;49.528;8.666;2022-12-05T01:45:12;118.73;;;47.03;;
5553;SDS011;2800;49.528;8.666;2022-12-05T01:47:39;209.27;;;51.93;;
5553;SDS011;2800;49.528;8.666;2022-12-05T01:50:06;132.10;;;49.07;;
5553;SDS011;2800;49.528;8.666;2022-12-05T01:52:32;123.57;;;48.87;;
5553;SDS011;2800;49.528;8.666;2022-12-05T01:55:02;109.70;;;45.80;;
5553;SDS011;2800;49.528;8.666;2022-12-05T01:57:32;122.20;;;47.40;;
5553;SDS011;2800;49.528;8.666;2022-12-05T02:00:01;94.53;;;44.67;;
5553;SDS011;2800;49.528;8.666;2022-12-05T02:02:48;142.90;;;49.37;;
5553;SDS011;2800;49.528;8.666;2022-12-05T02:05:22;168.23;;;48.70;;
5553;SDS011;2800;49.528;8.666;2022-12-05T02:07:53;100.43;;;45.50;;
5553;SDS011;2800;49.528;8.666;2022-12-05T02:10:21;214.93;;;53.63;;
5553;SDS011;2800;49.528;8.666;2022-12-05T02:12:48;183.97;;;51.80;;
5553;SDS011;2800;49.528;8.666;2022-12-05T02:17:49;203.10;;;54.27;;
5553;SDS011;2800;49.528;8.666;2022-12-05T02:23:19;378.90;;;55.30;;
5553;SDS011;2800;49.528;8.666;2022-12-05T02:31:26;487.70;;;59.73;;
5553;SDS011;2800;49.528;8.666;2022-12-05T02:34:18;763.30;;;71.30;;
5553;SDS011;2800;49.528;8.666;2022-12-05T02:36:56;619.33;;;67.23;;
5553;SDS011;2800;49.528;8.666;2022-12-05T02:42:12;517.77;;;62.20;;
5553;SDS011;2800;49.528;8.666;2022-12-05T02:45:01;201.97;;;55.70;;
5553;SDS011;2800;49.528;8.666;2022-12-05T02:47:32;219.83;;;54.67;;
5553;SDS011;2800;49.528;8.666;2022-12-05T02:50:00;139.00;;;54.37;;
5553;SDS011;2800;49.528;8.666;2022-12-05T02:52:27;308.20;;;62.60;;
5553;SDS011;2800;49.528;8.666;2022-12-05T02:54:55;132.07;;;52.70;;
5553;SDS011;2800;49.528;8.666;2022-12-05T02:57:22;547.33;;;66.23;;
5553;SDS011;2800;49.528;8.666;2022-12-05T02:59:50;386.13;;;62.80;;
5553;SDS011;2800;49.528;8.666;2022-12-05T03:02:26;340.63;;;58.00;;
5553;SDS011;2800;49.528;8.666;2022-12-05T03:04:56;248.60;;;56.20;;
5553;SDS011;2800;49.528;8.666;2022-12-05T03:07:26;458.80;;;60.20;;
5553;SDS011;2800;49.528;8.666;2022-12-05T03:09:56;314.53;;;53.10;;
5553;SDS011;2800;49.528;8.666;2022-12-05T03:12:28;418.30;;;62.30;;
5553;SDS011;2800;49.528;8.666;2022-12-05T03:17:43;602.83;;;68.13;;
5553;SDS011;2800;49.528;8.666;2022-12-05T03:20:17;443.83;;;63.50;;
5553;SDS011;2800;49.528;8.666;2022-12-05T03:22:53;670.83;;;72.73;;
5553;SDS011;2800;49.528;8.666;2022-12-05T03:25:25;514.73;;;74.33;;
5553;SDS011;2800;49.528;8.666;2022-12-05T03:28:02;414.20;;;63.70;;
5553;SDS011;2800;49.528;8.666;2022-12-05T03:30:37;456.93;;;67.00;;
5553;SDS011;2800;49.528;8.666;2022-12-05T03:33:04;418.00;;;65.90;;
5553;SDS011;2800;49.528;8.666;2022-12-05T03:41:19;613.40;;;67.87;;
5553;SDS011;2800;49.528;8.666;2022-12-05T03:43:56;315.47;;;62.00;;
5553;SDS011;2800;49.528;8.666;2022-12-05T03:46:24;318.43;;;61.90;;
5553;SDS011;2800;49.528;8.666;2022-12-05T03:51:19;268.47;;;64.30;;
5553;SDS011;2800;49.528;8.666;2022-12-05T03:53:54;187.70;;;58.40;;
5553;SDS011;2800;49.528;8.666;2022-12-05T03:56:24;193.63;;;56.20;;
5553;SDS011;2800;49.528;8.666;2022-12-05T03:59:04;183.37;;;57.87;;
5553;SDS011;2800;49.528;8.666;2022-12-05T04:01:38;155.63;;;54.50;;
5553;SDS011;2800;49.528;8.666;2022-12-05T04:04:10;152.53;;;52.80;;
5553;SDS011;2800;49.528;8.666;2022-12-05T04:06:40;169.60;;;53.83;;
5553;SDS011;2800;49.528;8.666;2022-12-05T04:09:10;146.30;;;51.93;;
5553;SDS011;2800;49.528;8.666;2022-12-05T04:11:42;146.80;;;52.27;;
5553;SDS011;2800;49.528;8.666;2022-12-05T04:14:13;127.73;;;47.97;;
5553;SDS011;2800;49.528;8.666;2022-12-05T04:16:53;126.70;;;51.20;;
5553;SDS011;2800;49.528;8.666;2022-12-05T04:22:23;138.50;;;51.10;;
5553;SDS011;2800;49.528;8.666;2022-12-05T04:24:49;129.67;;;50.70;;
5553;SDS011;2800;49.528;8.666;2022-12-05T04:32:47;119.37;;;48.40;;
5553;SDS011;2800;49.528;8.666;2022-12-05T04:35:16;109.43;;;46.67;;
5553;SDS011;2800;49.528;8.666;2022-12-05T04:37:57;124.53;;;49.60;;
5553;SDS011;2800;49.528;8.666;2022-12-05T04:40:30;103.10;;;45.13;;
5553;SDS011;2800;49.528;8.666;2022-12-05T04:43:01;113.80;;;46.50;;
5553;SDS011;2800;49.528;8.666;2022-12-05T04:45:30;101.83;;;45.07;;
5553;SDS011;2800;49.528;8.666;2022-12-05T04:47:59;91.20;;;44.30;;
5553;SDS011;2800;49.528;8.666;2022-12-05T04:50:28;103.00;;;45.50;;
5553;SDS011;2800;49.528;8.666;2022-12-05T04:52:56;90.87;;;43.23;;
5553;SDS011;2800;49.528;8.666;2022-12-05T04:55:25;102.10;;;48.30;;
5553;SDS011;2800;49.528;8.666;2022-12-05T04:57:57;96.50;;;44.20;;
5553;SDS011;2800;49.528;8.666;2022-12-05T05:00:27;109.70;;;45.40;;
5553;SDS011;2800;49.528;8.666;2022-12-05T05:02:59;93.83;;;44.63;;
5553;SDS011;2800;49.528;8.666;2022-12-05T05:05:31;86.77;;;42.50;;
5553;SDS011;2800;49.528;8.666;2022-12-05T05:08:00;94.97;;;43.33;;
5553;SDS011;2800;49.528;8.666;2022-12-05T05:10:32;89.77;;;40.80;;
5553;SDS011;2800;49.528;8.666;2022-12-05T05:13:03;88.03;;;42.23;;
5553;SDS011;2800;49.528;8.666;2022-12-05T05:15:28;76.23;;;39.63;;
5553;SDS011;2800;49.528;8.666;2022-12-05T05:17:54;75.00;;;36.97;;
5553;SDS011;2800;49.528;8.666;2022-12-05T05:20:20;65.67;;;36.43;;
5553;SDS011;2800;49.528;8.666;2022-12-05T05:22:48;64.93;;;35.07;;
5553;SDS011;2800;49.528;8.666;2022-12-05T05:25:15;73.17;;;36.30;;
5553;SDS011;2800;49.528;8.666;2022-12-05T05:27:41;62.80;;;33.50;;
5553;SDS011;2800;49.528;8.666;2022-12-05T05:30:06;56.90;;;34.27;;
5553;SDS011;2800;49.528;8.666;2022-12-05T05:32:33;60.17;;;32.17;;
5553;SDS011;2800;49.528;8.666;2022-12-05T05:34:58;53.20;;;32.17;;
5553;SDS011;2800;49.528;8.666;2022-12-05T05:37:24;53.70;;;30.80;;
5553;SDS011;2800;49.528;8.666;2022-12-05T05:39:49;46.90;;;29.20;;
5553;SDS011;2800;49.528;8.666;2022-12-05T05:42:15;50.50;;;28.67;;
5553;SDS011;2800;49.528;8.666;2022-12-05T05:44:40;45.17;;;28.50;;
5553;SDS011;2800;49.528;8.666;2022-12-05T05:47:06;48.77;;;26.50;;
5553;SDS011;2800;49.528;8.666;2022-12-05T05:49:31;42.87;;;26.40;;
5553;SDS011;2800;49.528;8.666;2022-12-05T05:51:57;40.50;;;26.77;;
5553;SDS011;2800;49.528;8.666;2022-12-05T05:54:22;38.93;;;25.80;;
5553;SDS011;2800;49.528;8.666;2022-12-05T05:56:48;38.13;;;25.77;;
5553;SDS011;2800;49.528;8.666;2022-12-05T05:59:13;41.90;;;27.43;;
5553;SDS011;2800;49.528;8.666;2022-12-05T06:01:39;40.30;;;27.30;;
5553;SDS011;2800;49.528;8.666;2022-12-05T06:04:04;47.60;;;28.77;;
5553;SDS011;2800;49.528;8.666;2022-12-05T06:06:31;43.87;;;27.80;;
5553;SDS011;2800;49.528;8.666;2022-12-05T06:08:57;47.17;;;27.70;;
5553;SDS011;2800;49.528;8.666;2022-12-05T06:11:24;46.83;;;29.23;;
5553;SDS011;2800;49.528;8.666;2022-12-05T06:13:52;44.50;;;28.23;;
5553;SDS011;2800;49.528;8.666;2022-12-05T06:16:21;42.77;;;27.07;;
5553;SDS011;2800;49.528;8.666;2022-12-05T06:18:47;47.33;;;27.50;;
5553;SDS011;2800;49.528;8.666;2022-12-05T06:21:13;47.67;;;30.13;;
5553;SDS011;2800;49.528;8.666;2022-12-05T06:23:39;49.20;;;28.87;;
5553;SDS011;2800;49.528;8.666;2022-12-05T06:26:08;43.30;;;27.60;;
5553;SDS011;2800;49.528;8.666;2022-12-05T06:28:35;48.20;;;28.63;;
5553;SDS011;2800;49.528;8.666;2022-12-05T06:31:10;52.07;;;29.27;;
5553;SDS011;2800;49.528;8.666;2022-12-05T06:33:43;44.00;;;29.07;;
5553;SDS011;2800;49.528;8.666;2022-12-05T06:36:10;47.07;;;27.63;;
5553;SDS011;2800;49.528;8.666;2022-12-05T06:38:40;44.93;;;28.17;;
5553;SDS011;2800;49.528;8.666;2022-12-05T06:41:07;50.00;;;29.57;;
5553;SDS011;2800;49.528;8.666;2022-12-05T06:43:34;48.70;;;30.30;;
5553;SDS011;2800;49.528;8.666;2022-12-05T06:46:03;49.87;;;30.60;;
5553;SDS011;2800;49.528;8.666;2022-12-05T06:48:35;53.23;;;29.80;;
5553;SDS011;2800;49.528;8.666;2022-12-05T06:51:01;50.13;;;31.07;;
5553;SDS011;2800;49.528;8.666;2022-12-05T06:53:27;52.50;;;31.60;;
5553;SDS011;2800;49.528;8.666;2022-12-05T06:55:54;52.67;;;30.90;;
5553;SDS011;2800;49.528;8.666;2022-12-05T06:58:21;49.70;;;29.87;;
5553;SDS011;2800;49.528;8.666;2022-12-05T07:00:46;59.13;;;31.23;;
5553;SDS011;2800;49.528;8.666;2022-12-05T07:03:30;55.57;;;32.30;;
5553;SDS011;2800;49.528;8.666;2022-12-05T07:05:59;51.97;;;30.40;;
5553;SDS011;2800;49.528;8.666;2022-12-05T07:08:25;55.27;;;31.40;;
5553;SDS011;2800;49.528;8.666;2022-12-05T07:10:51;54.73;;;31.73;;
5553;SDS011;2800;49.528;8.666;2022-12-05T07:13:16;60.23;;;31.60;;
5553;SDS011;2800;49.528;8.666;2022-12-05T07:15:44;58.27;;;31.77;;
5553;SDS011;2800;49.528;8.666;2022-12-05T07:18:10;56.23;;;32.47;;
5553;SDS011;2800;49.528;8.666;2022-12-05T07:20:36;56.27;;;33.17;;
5553;SDS011;2800;49.528;8.666;2022-12-05T07:23:01;57.70;;;33.70;;
5553;SDS011;2800;49.528;8.666;2022-12-05T07:25:27;57.33;;;33.30;;
5553;SDS011;2800;49.528;8.666;2022-12-05T07:27:52;52.70;;;34.03;;
5553;SDS011;2800;49.528;8.666;2022-12-05T07:30:18;61.13;;;34.67;;
5553;SDS011;2800;49.528;8.666;2022-12-05T07:32:43;59.30;;;34.53;;
5553;SDS011;2800;49.528;8.666;2022-12-05T07:35:09;56.43;;;33.20;;
5553;SDS011;2800;49.528;8.666;2022-12-05T07:37:34;53.40;;;31.90;;
5553;SDS011;2800;49.528;8.666;2022-12-05T07:40:00;51.40;;;31.90;;
5553;SDS011;2800;49.528;8.666;2022-12-05T07:42:26;52.43;;;33.70;;
5553;SDS011;2800;49.528;8.666;2022-12-05T07:44:51;48.17;;;30.17;;
5553;SDS011;2800;49.528;8.666;2022-12-05T07:47:17;52.30;;;31.20;;
5553;SDS011;2800;49.528;8.666;2022-12-05T07:49:42;49.60;;;31.23;;
5553;SDS011;2800;49.528;8.666;2022-12-05T07:52:08;51.87;;;32.20;;
5553;SDS011;2800;49.528;8.666;2022-12-05T07:54:34;50.00;;;33.37;;
5553;SDS011;2800;49.528;8.666;2022-12-05T07:56:59;56.87;;;33.90;;
5553;SDS011;2800;49.528;8.666;2022-12-05T07:59:25;54.20;;;32.50;;
5553;SDS011;2800;49.528;8.666;2022-12-05T08:01:50;49.53;;;32.63;;
5553;SDS011;2800;49.528;8.666;2022-12-05T08:04:16;50.17;;;29.93;;
5553;SDS011;2800;49.528;8.666;2022-12-05T08:06:42;50.33;;;31.47;;
5553;SDS011;2800;49.528;8.666;2022-12-05T08:09:07;46.57;;;29.53;;
5553;SDS011;2800;49.528;8.666;2022-12-05T08:11:33;54.87;;;30.67;;
5553;SDS011;2800;49.528;8.666;2022-12-05T08:13:59;53.57;;;32.57;;
5553;SDS011;2800;49.528;8.666;2022-12-05T08:16:27;52.00;;;33.40;;
5553;SDS011;2800;49.528;8.666;2022-12-05T08:18:54;51.33;;;32.10;;
5553;SDS011;2800;49.528;8.666;2022-12-05T08:21:24;49.73;;;30.80;;
5553;SDS011;2800;49.528;8.666;2022-12-05T08:23:50;48.43;;;31.50;;
5553;SDS011;2800;49.528;8.666;2022-12-05T08:26:20;46.03;;;31.10;;
5553;SDS011;2800;49.528;8.666;2022-12-05T08:29:01;51.90;;;30.93;;
5553;SDS011;2800;49.528;8.666;2022-12-05T08:31:30;50.30;;;30.50;;
5553;SDS011;2800;49.528;8.666;2022-12-05T08:33:58;52.60;;;31.87;;
5553;SDS011;2800;49.528;8.666;2022-12-05T08:36:24;51.73;;;34.50;;
5553;SDS011;2800;49.528;8.666;2022-12-05T08:38:55;55.13;;;33.67;;
5553;SDS011;2800;49.528;8.666;2022-12-05T08:41:25;53.20;;;35.23;;
5553;SDS011;2800;49.528;8.666;2022-12-05T08:43:54;48.83;;;32.23;;
5553;SDS011;2800;49.528;8.666;2022-12-05T08:46:20;50.43;;;30.43;;
5553;SDS011;2800;49.528;8.666;2022-12-05T08:48:46;48.50;;;30.63;;
5553;SDS011;2800;49.528;8.666;2022-12-05T08:51:12;52.23;;;34.03;;
5553;SDS011;2800;49.528;8.666;2022-12-05T08:53:38;52.47;;;32.67;;
5553;SDS011;2800;49.528;8.666;2022-12-05T08:56:05;47.00;;;33.90;;
5553;SDS011;2800;49.528;8.666;2022-12-05T08:58:32;47.60;;;30.20;;
5553;SDS011;2800;49.528;8.666;2022-12-05T09:01:02;47.30;;;31.70;;
5553;SDS011;2800;49.528;8.666;2022-12-05T09:03:38;45.50;;;30.50;;
5553;SDS011;2800;49.528;8.666;2022-12-05T09:06:05;46.37;;;30.90;;
5553;SDS011;2800;49.528;8.666;2022-12-05T09:08:35;55.10;;;30.17;;
5553;SDS011;2800;49.528;8.666;2022-12-05T09:11:08;47.50;;;28.93;;
5553;SDS011;2800;49.528;8.666;2022-12-05T09:13:37;43.67;;;28.90;;
5553;SDS011;2800;49.528;8.666;2022-12-05T09:16:16;44.70;;;30.60;;
5553;SDS011;2800;49.528;8.666;2022-12-05T09:18:44;42.83;;;30.50;;
5553;SDS011;2800;49.528;8.666;2022-12-05T09:21:11;45.87;;;28.77;;
5553;SDS011;2800;49.528;8.666;2022-12-05T09:23:39;43.97;;;31.00;;
5553;SDS011;2800;49.528;8.666;2022-12-05T09:26:05;40.87;;;26.70;;
5553;SDS011;2800;49.528;8.666;2022-12-05T09:28:32;41.30;;;29.20;;
5553;SDS011;2800;49.528;8.666;2022-12-05T09:30:59;43.83;;;27.43;;
5553;SDS011;2800;49.528;8.666;2022-12-05T09:33:31;42.37;;;26.37;;
5553;SDS011;2800;49.528;8.666;2022-12-05T09:36:01;37.63;;;26.67;;
5553;SDS011;2800;49.528;8.666;2022-12-05T09:38:28;41.17;;;26.80;;
5553;SDS011;2800;49.528;8.666;2022-12-05T09:41:07;45.57;;;29.37;;
5553;SDS011;2800;49.528;8.666;2022-12-05T09:49:57;49.07;;;34.80;;
5553;SDS011;2800;49.528;8.666;2022-12-05T09:52:40;42.63;;;29.07;;
5553;SDS011;2800;49.528;8.666;2022-12-05T09:55:26;38.60;;;26.73;;
5553;SDS011;2800;49.528;8.666;2022-12-05T09:57:59;40.77;;;30.03;;
5553;SDS011;2800;49.528;8.666;2022-12-05T10:00:26;37.80;;;26.77;;
5553;SDS011;2800;49.528;8.666;2022-12-05T10:06:05;43.00;;;30.80;;
5553;SDS011;2800;49.528;8.666;2022-12-05T10:08:40;48.80;;;36.60;;
5553;SDS011;2800;49.528;8.666;2022-12-05T10:11:21;46.80;;;33.33;;
5553;SDS011;2800;49.528;8.666;2022-12-05T10:16:40;49.00;;;33.80;;
5553;SDS011;2800;49.528;8.666;2022-12-05T10:19:35;45.87;;;30.90;;
5553;SDS011;2800;49.528;8.666;2022-12-05T10:22:15;41.67;;;28.67;;
5553;SDS011;2800;49.528;8.666;2022-12-05T10:24:48;43.37;;;31.10;;
5553;SDS011;2800;49.528;8.666;2022-12-05T10:27:20;40.10;;;28.03;;
5553;SDS011;2800;49.528;8.666;2022-12-05T10:30:04;40.73;;;29.37;;
5553;SDS011;2800;49.528;8.666;2022-12-05T10:32:54;42.90;;;29.20;;
5553;SDS011;2800;49.528;8.666;2022-12-05T10:35:31;38.07;;;27.33;;
5553;SDS011;2800;49.528;8.666;2022-12-05T10:38:02;39.57;;;27.63;;
5553;SDS011;2800;49.528;8.666;2022-12-05T10:40:33;38.27;;;27.90;;
5553;SDS011;2800;49.528;8.666;2022-12-05T10:43:03;39.57;;;27.50;;
5553;SDS011;2800;49.528;8.666;2022-12-05T10:45:29;39.57;;;28.73;;
5553;SDS011;2800;49.528;8.666;2022-12-05T10:47:55;36.37;;;28.03;;
5553;SDS011;2800;49.528;8.666;2022-12-05T10:50:23;41.37;;;29.30;;
5553;SDS011;2800;49.528;8.666;2022-12-05T10:52:58;37.30;;;27.67;;
5553;SDS011;2800;49.528;8.666;2022-12-05T10:55:30;41.43;;;29.30;;
5553;SDS011;2800;49.528;8.666;2022-12-05T11:00:48;42.50;;;28.73;;
5553;SDS011;2800;49.528;8.666;2022-12-05T11:03:35;37.50;;;26.50;;
5553;SDS011;2800;49.528;8.666;2022-12-05T11:06:14;39.00;;;28.63;;
5553;SDS011;2800;49.528;8.666;2022-12-05T11:08:52;40.47;;;26.37;;
5553;SDS011;2800;49.528;8.666;2022-12-05T11:11:29;42.57;;;30.37;;
5553;SDS011;2800;49.528;8.666;2022-12-05T11:14:18;39.07;;;29.47;;
5553;SDS011;2800;49.528;8.666;2022-12-05T11:16:51;44.47;;;29.27;;
5553;SDS011;2800;49.528;8.666;2022-12-05T11:21:55;40.70;;;29.00;;
5553;SDS011;2800;49.528;8.666;2022-12-05T11:26:58;48.80;;;33.90;;
5553;SDS011;2800;49.528;8.666;2022-12-05T11:29:52;49.60;;;33.77;;
5553;SDS011;2800;49.528;8.666;2022-12-05T11:32:37;41.67;;;28.60;;
5553;SDS011;2800;49.528;8.666;2022-12-05T11:37:55;43.67;;;31.00;;
5553;SDS011;2800;49.528;8.666;2022-12-05T11:40:39;42.97;;;29.83;;
5553;SDS011;2800;49.528;8.666;2022-12-05T11:46:08;50.40;;;32.83;;
5553;SDS011;2800;49.528;8.666;2022-12-05T11:51:38;41.13;;;29.83;;
5553;SDS011;2800;49.528;8.666;2022-12-05T11:56:52;37.93;;;28.67;;
5553;SDS011;2800;49.528;8.666;2022-12-05T11:59:51;44.00;;;29.40;;
5553;SDS011;2800;49.528;8.666;2022-12-05T12:02:33;42.67;;;30.10;;
5553;SDS011;2800;49.528;8.666;2022-12-05T12:08:15;40.03;;;28.47;;
5553;SDS011;2800;49.528;8.666;2022-12-05T12:16:33;39.00;;;28.20;;
5553;SDS011;2800;49.528;8.666;2022-12-05T12:30:14;37.90;;;27.40;;
5553;SDS011;2800;49.528;8.666;2022-12-05T12:40:45;38.27;;;28.27;;
5553;SDS011;2800;49.528;8.666;2022-12-05T12:46:29;43.83;;;28.38;;
5553;SDS011;2800;49.528;8.666;2022-12-05T12:49:18;40.20;;;29.47;;
5553;SDS011;2800;49.528;8.666;2022-12-05T12:51:55;41.10;;;31.07;;
5553;SDS011;2800;49.528;8.666;2022-12-05T12:59:51;56.73;;;39.23;;
5553;SDS011;2800;49.528;8.666;2022-12-05T13:02:43;49.53;;;34.97;;
5553;SDS011;2800;49.528;8.666;2022-12-05T13:05:20;43.60;;;30.80;;
5553;SDS011;2800;49.528;8.666;2022-12-05T13:08:06;45.57;;;31.80;;
5553;SDS011;2800;49.528;8.666;2022-12-05T13:10:39;50.13;;;38.30;;
5553;SDS011;2800;49.528;8.666;2022-12-05T13:13:09;48.70;;;35.13;;
5553;SDS011;2800;49.528;8.666;2022-12-05T13:15:44;43.00;;;30.98;;
5553;SDS011;2800;49.528;8.666;2022-12-05T13:18:23;44.28;;;29.00;;
5553;SDS011;2800;49.528;8.666;2022-12-05T13:20:50;34.47;;;27.20;;
5553;SDS011;2800;49.528;8.666;2022-12-05T13:23:30;43.77;;;30.80;;
5553;SDS011;2800;49.528;8.666;2022-12-05T13:25:58;39.47;;;28.37;;
5553;SDS011;2800;49.528;8.666;2022-12-05T13:28:29;33.80;;;26.47;;
5553;SDS011;2800;49.528;8.666;2022-12-05T13:30:58;41.13;;;30.47;;
5553;SDS011;2800;49.528;8.666;2022-12-05T13:33:30;40.97;;;30.00;;
5553;SDS011;2800;49.528;8.666;2022-12-05T13:36:11;34.67;;;25.60;;
5553;SDS011;2800;49.528;8.666;2022-12-05T13:39:04;35.20;;;26.80;;
5553;SDS011;2800;49.528;8.666;2022-12-05T13:41:51;39.60;;;29.53;;
5553;SDS011;2800;49.528;8.666;2022-12-05T13:44:39;42.53;;;30.43;;
5553;SDS011;2800;49.528;8.666;2022-12-05T13:47:06;32.67;;;24.47;;
5553;SDS011;2800;49.528;8.666;2022-12-05T13:49:54;32.73;;;25.73;;
5553;SDS011;2800;49.528;8.666;2022-12-05T13:52:25;30.90;;;24.20;;
5553;SDS011;2800;49.528;8.666;2022-12-05T13:55:01;30.80;;;23.90;;
5553;SDS011;2800;49.528;8.666;2022-12-05T14:07:45;30.07;;;23.63;;
5553;SDS011;2800;49.528;8.666;2022-12-05T14:15:43;31.60;;;23.67;;
5553;SDS011;2800;49.528;8.666;2022-12-05T14:18:17;31.47;;;24.57;;
5553;SDS011;2800;49.528;8.666;2022-12-05T14:21:07;34.07;;;23.97;;
5553;SDS011;2800;49.528;8.666;2022-12-05T14:27:02;34.13;;;24.40;;
5553;SDS011;2800;49.528;8.666;2022-12-05T14:32:44;31.50;;;22.27;;
5553;SDS011;2800;49.528;8.666;2022-12-05T14:35:11;31.80;;;24.33;;
5553;SDS011;2800;49.528;8.666;2022-12-05T14:37:42;26.40;;;21.67;;
5553;SDS011;2800;49.528;8.666;2022-12-05T14:40:33;25.40;;;19.80;;
5553;SDS011;2800;49.528;8.666;2022-12-05T14:45:36;24.50;;;17.50;;
5553;SDS011;2800;49.528;8.666;2022-12-05T14:48:26;22.97;;;16.73;;
5553;SDS011;2800;49.528;8.666;2022-12-05T14:50:53;20.13;;;15.70;;
5553;SDS011;2800;49.528;8.666;2022-12-05T14:58:44;26.13;;;15.67;;
5553;SDS011;2800;49.528;8.666;2022-12-05T15:01:26;19.63;;;14.10;;
5553;SDS011;2800;49.528;8.666;2022-12-05T15:03:57;25.17;;;13.77;;
5553;SDS011;2800;49.528;8.666;2022-12-05T15:06:28;20.43;;;14.60;;
5553;SDS011;2800;49.528;8.666;2022-12-05T15:08:56;19.33;;;14.57;;
5553;SDS011;2800;49.528;8.666;2022-12-05T15:11:25;19.07;;;14.17;;
5553;SDS011;2800;49.528;8.666;2022-12-05T15:13:58;20.60;;;16.47;;
5553;SDS011;2800;49.528;8.666;2022-12-05T15:16:29;23.30;;;17.47;;
5553;SDS011;2800;49.528;8.666;2022-12-05T15:19:02;21.43;;;15.40;;
5553;SDS011;2800;49.528;8.666;2022-12-05T15:21:39;18.77;;;13.33;;
5553;SDS011;2800;49.528;8.666;2022-12-05T15:24:13;17.10;;;13.60;;
5553;SDS011;2800;49.528;8.666;2022-12-05T15:26:46;22.40;;;14.20;;
5553;SDS011;2800;49.528;8.666;2022-12-05T15:31:45;21.63;;;12.07;;
5553;SDS011;2800;49.528;8.666;2022-12-05T15:34:20;16.90;;;12.40;;
5553;SDS011;2800;49.528;8.666;2022-12-05T15:42:26;15.83;;;12.50;;
5553;SDS011;2800;49.528;8.666;2022-12-05T15:50:12;17.23;;;12.27;;
5553;SDS011;2800;49.528;8.666;2022-12-05T15:52:46;38.97;;;30.37;;
5553;SDS011;2800;49.528;8.666;2022-12-05T15:55:20;26.00;;;18.23;;
5553;SDS011;2800;49.528;8.666;2022-12-05T15:57:54;21.40;;;15.20;;
5553;SDS011;2800;49.528;8.666;2022-12-05T16:00:34;29.80;;;16.93;;
5553;SDS011;2800;49.528;8.666;2022-12-05T16:03:10;29.40;;;16.57;;
5553;SDS011;2800;49.528;8.666;2022-12-05T16:05:38;17.77;;;11.37;;
5553;SDS011;2800;49.528;8.666;2022-12-05T16:08:11;12.20;;;8.50;;
5553;SDS011;2800;49.528;8.666;2022-12-05T16:10:37;14.40;;;10.20;;
5553;SDS011;2800;49.528;8.666;2022-12-05T16:13:04;10.37;;;7.90;;
5553;SDS011;2800;49.528;8.666;2022-12-05T16:15:31;12.50;;;8.20;;
5553;SDS011;2800;49.528;8.666;2022-12-05T16:17:58;15.93;;;8.83;;
5553;SDS011;2800;49.528;8.666;2022-12-05T16:22:55;14.10;;;11.03;;
5553;SDS011;2800;49.528;8.666;2022-12-05T16:25:25;12.80;;;9.90;;
5553;SDS011;2800;49.528;8.666;2022-12-05T16:30:33;29.67;;;21.80;;
5553;SDS011;2800;49.528;8.666;2022-12-05T16:33:04;26.70;;;17.30;;
5553;SDS011;2800;49.528;8.666;2022-12-05T16:38:27;11.43;;;8.67;;
5553;SDS011;2800;49.528;8.666;2022-12-05T16:40:57;13.27;;;10.97;;
5553;SDS011;2800;49.528;8.666;2022-12-05T16:45:57;14.20;;;11.20;;
5553;SDS011;2800;49.528;8.666;2022-12-05T16:48:31;14.90;;;11.00;;
5553;SDS011;2800;49.528;8.666;2022-12-05T16:53:35;10.37;;;7.33;;
5553;SDS011;2800;49.528;8.666;2022-12-05T16:56:02;10.63;;;7.83;;
5553;SDS011;2800;49.528;8.666;2022-12-05T16:58:28;11.50;;;7.27;;
5553;SDS011;2800;49.528;8.666;2022-12-05T17:01:02;11.70;;;7.90;;
5553;SDS011;2800;49.528;8.666;2022-12-05T17:03:30;12.03;;;9.07;;
5553;SDS011;2800;49.528;8.666;2022-12-05T17:05:56;13.93;;;10.70;;
5553;SDS011;2800;49.528;8.666;2022-12-05T17:08:22;17.77;;;12.80;;
5553;SDS011;2800;49.528;8.666;2022-12-05T17:10:49;13.90;;;10.40;;
5553;SDS011;2800;49.528;8.666;2022-12-05T17:13:16;13.20;;;8.90;;
5553;SDS011;2800;49.528;8.666;2022-12-05T17:15:43;11.60;;;8.70;;
5553;SDS011;2800;49.528;8.666;2022-12-05T17:18:13;13.00;;;9.73;;
5553;SDS011;2800;49.528;8.666;2022-12-05T17:20:42;14.90;;;10.63;;
5553;SDS011;2800;49.528;8.666;2022-12-05T17:23:10;16.17;;;11.70;;
5553;SDS011;2800;49.528;8.666;2022-12-05T17:25:37;20.73;;;16.20;;
5553;SDS011;2800;49.528;8.666;2022-12-05T17:28:05;26.83;;;18.47;;
5553;SDS011;2800;49.528;8.666;2022-12-05T17:30:31;20.80;;;15.90;;
5553;SDS011;2800;49.528;8.666;2022-12-05T17:32:58;23.40;;;16.80;;
5553;SDS011;2800;49.528;8.666;2022-12-05T17:35:26;17.37;;;13.33;;
5553;SDS011;2800;49.528;8.666;2022-12-05T17:37:53;23.20;;;16.10;;
5553;SDS011;2800;49.528;8.666;2022-12-05T17:40:18;36.43;;;23.77;;
5553;SDS011;2800;49.528;8.666;2022-12-05T17:42:44;23.03;;;16.50;;